KDMN

Details ICAO KDMN
Name DEMING MUNI
Region United States
Timezone America/Denver (UTC-6.0)
Plans Departing 5
Arriving 9
Stats Elevation 4,314 ft / 1,315 m (AMSL)
Location 32.262241° -107.720885°
Runways 2
Magnetic Variation 8.643° E
Sunrise 2018-05-25 12:08:52 UTC / 2018-05-25 06:08:52 Local
Sunset 2018-05-26 02:09:42 UTC / 2018-05-25 20:09:42 Local
Advertisement - Login to hide

Runways

ID Width Length Bearing (true) Bearing (mag) Surface Threshold Offset Overrun Length
04 60 ft / 18 m 5,674 ft / 1,729 m 51.44° 42.80° Asphalt 0 ft / 0 m 0 ft / 0 m
08 75 ft / 23 m 6,615 ft / 2,016 m 89.73° 81.09° Asphalt 0 ft / 0 m 0 ft / 0 m
22 60 ft / 18 m 5,674 ft / 1,729 m 231.44° 222.80° Asphalt 0 ft / 0 m 0 ft / 0 m
26 75 ft / 23 m 6,615 ft / 2,016 m 269.74° 261.10° Asphalt 0 ft / 0 m 0 ft / 0 m

Map

Weather


0- 5 10 15 20 25 30 35+ Temperature / ° C

Clouds and Precipitation
Forecast for 2018-05-25 18:00 UTC. Updated 2 hours ago

Ground ~20,000 ft ~40,000 ft Winds

METAR

KDMN 251853Z AUTO 19007KT 10SM CLR 32/M12 A3010 RMK AO2 SLP118 T03221122

TAF

KDMN 251727Z 2518/2618 26007KT P6SM FEW250 FM252000 22010G20KT P6SM FEW250 FM260200 28007KT P6SM SCT250 FM261400 22006KT P6SM FEW200 SCT250

Frequencies

Recorded 118.52 MHz ASOS
Unicom 122.80 MHz CTAF/UNICOM
Warning: Do not use this data for real-world aviation or navigation. No guarantee of current accuracy is given.